createdAt,value
2022-09-23T00:03:53.998Z,81.95
2022-09-23T00:08:55.464Z,81.99
2022-09-23T00:13:59.408Z,81.96
2022-09-23T00:19:01.960Z,82.05
2022-09-23T00:24:03.435Z,81.76
2022-09-23T00:29:04.875Z,81.77
2022-09-23T00:34:06.233Z,82.38
2022-09-23T00:39:07.811Z,82.35
2022-09-23T00:44:45.121Z,82.49
2022-09-23T00:49:52.244Z,83.24
2022-09-23T00:54:57.014Z,83.16
2022-09-23T00:59:59.123Z,82.79
2022-09-23T01:05:03.077Z,83.34
2022-09-23T01:10:05.854Z,83.23
2022-09-23T01:15:12.881Z,83.22
2022-09-23T01:20:35.874Z,83.09
2022-09-23T01:26:42.460Z,83.46
2022-09-23T01:31:49.498Z,83.81
2022-09-23T01:37:19.567Z,84.06
2022-09-23T01:42:31.142Z,84.26
2022-09-23T01:47:53.053Z,84.21
2022-09-23T01:53:04.524Z,83.99
2022-09-23T01:58:11.763Z,84.30
2022-09-23T02:03:19.127Z,84.72
2022-09-23T02:08:37.753Z,84.99
2022-09-23T02:13:50.577Z,85.26
2022-09-23T02:19:07.657Z,85.29
2022-09-23T02:24:19.461Z,85.81
2022-09-23T02:29:55.964Z,85.78
2022-09-23T02:35:12.379Z,85.82
2022-09-23T02:40:22.356Z,86.09
2022-09-23T02:45:23.884Z,86.33
2022-09-23T02:50:25.442Z,86.32
2022-09-23T02:55:30.083Z,86.24
2022-09-23T03:00:53.050Z,86.72
2022-09-23T03:05:58.862Z,86.62
2022-09-23T03:11:12.290Z,86.92
2022-09-23T03:16:36.839Z,86.97
2022-09-23T03:21:56.528Z,87.06
2022-09-23T03:27:03.246Z,87.12
2022-09-23T03:32:05.847Z,87.43
2022-09-23T03:37:15.838Z,87.32
2022-09-23T03:42:22.433Z,87.41
2022-09-23T03:47:28.787Z,87.63
2022-09-23T03:52:30.916Z,87.28
2022-09-23T03:57:32.710Z,88.16
2022-09-23T04:02:34.792Z,87.51
2022-09-23T04:07:36.385Z,88.11
2022-09-23T04:12:38.172Z,88.38
2022-09-23T04:17:39.882Z,88.27
2022-09-23T04:22:41.283Z,88.81
2022-09-23T04:27:42.814Z,88.59
2022-09-23T04:32:44.130Z,88.57
2022-09-23T04:37:47.868Z,88.91
2022-09-23T04:42:49.248Z,88.97
2022-09-23T04:47:50.640Z,89.14
2022-09-23T04:52:53.139Z,89.50
2022-09-23T04:57:54.720Z,89.61
2022-09-23T05:02:56.147Z,89.46
2022-09-23T05:07:57.931Z,89.55
2022-09-23T05:12:59.289Z,89.90
2022-09-23T05:18:00.742Z,89.77
2022-09-23T05:23:02.143Z,89.75
2022-09-23T05:28:03.554Z,90.03
2022-09-23T05:33:04.903Z,89.54
2022-09-23T05:38:06.688Z,89.79
2022-09-23T05:43:08.108Z,89.95
2022-09-23T05:48:09.481Z,89.62
2022-09-23T05:53:10.832Z,89.45
2022-09-23T05:58:13.247Z,89.22
2022-09-23T06:03:20.271Z,89.10
2022-09-23T06:08:23.324Z,88.76
2022-09-23T06:13:24.783Z,88.55
2022-09-23T06:18:26.255Z,88.27
2022-09-23T06:23:27.932Z,87.98
2022-09-23T06:28:34.625Z,87.92
2022-09-23T06:33:37.391Z,87.15
2022-09-23T06:38:40.406Z,86.84
2022-09-23T06:43:41.783Z,85.35
2022-09-23T06:48:46.142Z,84.93
2022-09-23T06:53:49.840Z,83.91
2022-09-23T06:58:52.434Z,82.96
2022-09-23T07:03:53.870Z,81.82
2022-09-23T07:08:55.407Z,81.15
2022-09-23T07:13:56.837Z,79.31
2022-09-23T07:18:58.280Z,77.64
2022-09-23T07:23:59.709Z,76.05
2022-09-23T07:29:02.895Z,74.40
2022-09-23T07:34:04.925Z,73.12
2022-09-23T07:39:11.915Z,69.89
2022-09-23T07:44:13.317Z,69.00
2022-09-23T07:49:15.590Z,66.93
2022-09-23T07:54:17.203Z,64.96
2022-09-23T07:59:20.193Z,63.57
2022-09-23T08:04:24.897Z,61.71
2022-09-23T08:09:33.101Z,60.00
2022-09-23T08:14:34.757Z,60.34
2022-09-23T08:19:36.248Z,60.02
2022-09-23T08:24:37.619Z,60.49
2022-09-23T08:29:38.964Z,60.29
2022-09-23T08:34:40.380Z,60.33
2022-09-23T08:39:41.800Z,60.40
2022-09-23T08:44:50.794Z,59.05
2022-09-23T08:50:33.575Z,58.16
2022-09-23T08:55:38.129Z,56.73
2022-09-23T09:00:44.777Z,56.52
2022-09-23T09:05:53.907Z,53.68
2022-09-23T09:10:57.719Z,53.91
2022-09-23T09:16:02.101Z,53.50
2022-09-23T09:21:13.536Z,52.10
2022-09-23T09:26:20.659Z,50.56
2022-09-23T09:31:41.202Z,48.73
2022-09-23T09:36:53.871Z,47.06
2022-09-23T09:41:55.223Z,45.58
2022-09-23T09:47:09.828Z,41.69
2022-09-23T09:52:24.521Z,41.59
2022-09-23T09:57:38.219Z,42.26
2022-09-23T10:39:19.116Z,43.06
2022-09-23T10:51:26.769Z,42.73
2022-09-23T11:03:02.927Z,41.76
2022-09-23T11:54:38.840Z,43.95
2022-09-23T12:00:06.119Z,42.28
2022-09-23T12:11:11.659Z,42.72
2022-09-23T12:22:28.332Z,39.61
2022-09-23T12:28:03.085Z,40.04
2022-09-23T12:51:16.853Z,41.96
2022-09-23T12:56:21.849Z,39.40
2022-09-23T13:01:25.585Z,38.92
2022-09-23T13:06:55.235Z,39.02
2022-09-23T13:12:01.668Z,37.67
2022-09-23T13:17:03.545Z,36.79
2022-09-23T13:22:09.585Z,37.90
2022-09-23T13:27:21.755Z,40.06
2022-09-23T13:32:28.849Z,41.02
2022-09-23T13:37:40.538Z,43.61
2022-09-23T13:42:44.627Z,42.82
2022-09-23T13:47:48.066Z,45.13
2022-09-23T13:52:55.325Z,45.15
2022-09-23T13:58:14.851Z,45.15
2022-09-23T14:03:37.446Z,46.68
2022-09-23T14:08:41.270Z,48.29
2022-09-23T14:13:44.732Z,47.48
2022-09-23T14:18:49.505Z,48.56
2022-09-23T14:23:50.835Z,46.76
2022-09-23T14:28:52.419Z,46.86
2022-09-23T14:33:53.787Z,49.56
2022-09-23T14:39:02.996Z,50.00
2022-09-23T14:44:06.763Z,48.93
2022-09-23T14:49:10.932Z,51.74
2022-09-23T16:40:19.834Z,64.34
2022-09-23T17:33:21.521Z,75.03
2022-09-23T17:38:28.635Z,76.55
2022-09-23T17:43:31.365Z,77.77
2022-09-23T17:48:47.109Z,79.16
2022-09-23T17:53:54.544Z,80.24
2022-09-23T17:59:01.225Z,81.09
2022-09-23T18:04:19.910Z,81.76
2022-09-23T18:09:27.953Z,82.62
2022-09-23T18:14:32.459Z,82.28
2022-09-23T18:19:39.882Z,83.10
2022-09-23T18:24:50.209Z,83.16
2022-09-23T18:30:09.272Z,83.59
2022-09-23T18:35:19.493Z,84.01
2022-09-23T18:40:21.515Z,85.08
2022-09-23T18:45:27.972Z,85.23
2022-09-23T18:50:32.901Z,85.61
2022-09-23T18:55:37.125Z,86.01
2022-09-23T19:06:14.871Z,85.74
2022-09-23T19:11:23.578Z,86.89
2022-09-23T19:17:03.250Z,87.83
2022-09-23T19:22:07.945Z,87.68
2022-09-23T19:27:09.880Z,87.94
2022-09-23T19:32:15.210Z,88.71
2022-09-23T19:37:21.912Z,89.41
2022-09-23T19:42:35.427Z,90.66
2022-09-23T19:48:00.942Z,91.56
2022-09-23T19:53:08.028Z,92.47
2022-09-23T19:58:10.719Z,93.01
2022-09-23T20:03:15.128Z,93.25
2022-09-23T20:08:16.796Z,93.28
2022-09-23T20:13:27.491Z,92.99
2022-09-23T20:18:42.196Z,92.98
2022-09-23T20:23:50.118Z,92.97
2022-09-23T20:28:52.946Z,93.21
2022-09-23T20:33:58.323Z,93.03
2022-09-23T20:39:01.981Z,92.95
2022-09-23T20:44:07.059Z,94.24
2022-09-23T20:49:09.143Z,94.75
2022-09-23T20:54:11.196Z,95.80
2022-09-23T20:59:14.535Z,96.83
2022-09-23T21:04:20.343Z,97.75
2022-09-23T21:09:28.573Z,98.69
2022-09-23T21:14:31.596Z,99.47
2022-09-23T21:19:34.237Z,98.87
2022-09-23T21:29:52.133Z,98.77
2022-09-23T21:34:56.688Z,98.95
2022-09-23T21:39:58.862Z,99.28
2022-09-23T21:45:09.760Z,99.56
2022-09-23T21:50:17.138Z,99.69
2022-09-23T21:55:20.244Z,99.70
2022-09-23T22:00:33.620Z,99.65
2022-09-23T22:05:37.335Z,99.33
2022-09-23T22:10:42.441Z,99.55
2022-09-23T22:15:56.598Z,99.26
2022-09-23T22:21:02.576Z,99.20
2022-09-23T22:26:04.781Z,99.86
2022-09-23T22:31:08.290Z,100.00
2022-09-23T22:36:10.403Z,100.00
2022-09-23T22:41:14.517Z,100.00
2022-09-23T22:46:22.422Z,99.79
2022-09-23T22:51:24.128Z,99.25
2022-09-23T22:56:25.881Z,99.23
2022-09-23T23:01:45.194Z,99.25
2022-09-23T23:06:59.058Z,99.23
2022-09-23T23:12:08.502Z,99.50
2022-09-23T23:17:14.391Z,99.01
2022-09-23T23:22:19.318Z,99.26
2022-09-23T23:27:21.542Z,99.26
2022-09-23T23:32:30.042Z,100.00
2022-09-23T23:37:42.702Z,100.00
2022-09-23T23:42:46.612Z,100.00
2022-09-23T23:47:53.753Z,100.00
2022-09-23T23:52:55.981Z,100.00
2022-09-23T23:57:59.018Z,100.00
